FAE weather

Vagar Airport
Vagar, Faroe Islands

Public forecast

Using degrees Celsius for public forecast. Weather courtesy of forecast.io.

METAR (pilot weather report)

Retrieved 2019/04/23 03:20 UTC (26 minutes ago):

EKVG 230320Z AUTO 13015KT 9999NDV NCD 08/06 Q1003 RMK NCD WIND SKEID 14025KT

TAF (pilot weather forecast)

Forecast is more than 12 hours old.

Retrieved 2017/08/20 00:36 UTC (2 years ago):

TAF TAF EKVG 200034Z 2000/2012 33018KT 9000 FEW007 TEMPO 2003/2006 34025G35KT 4000 DZRA BKN006